createdAt,value
2024-05-09T00:01:15.648Z,100393.74
2024-05-09T00:11:22.238Z,100385.63
2024-05-09T00:21:25.485Z,100386.75
2024-05-09T00:31:28.892Z,100381.18
2024-05-09T00:41:34.454Z,100390.41
2024-05-09T00:51:41.608Z,100393.59
2024-05-09T01:01:46.807Z,100397.11
2024-05-09T01:11:50.176Z,100387.04
2024-05-09T01:21:53.451Z,100389.14
2024-05-09T01:31:59.332Z,100387.63
2024-05-09T01:42:03.151Z,100391.44
2024-05-09T01:52:06.593Z,100397.44
2024-05-09T02:02:10.825Z,100400.83
2024-05-09T02:12:16.529Z,100399.23
2024-05-09T02:22:19.879Z,100395.55
2024-05-09T02:32:23.001Z,100393.88
2024-05-09T02:42:28.543Z,100393.54
2024-05-09T02:52:31.598Z,100394.30
2024-05-09T03:02:34.995Z,100390.45
2024-05-09T03:12:39.404Z,100390.30
2024-05-09T03:22:44.680Z,100392.38
2024-05-09T03:32:48.027Z,100394.92
2024-05-09T03:42:54.036Z,100398.70
2024-05-09T03:52:57.506Z,100395.27
2024-05-09T04:03:01.141Z,100400.00
2024-05-09T04:13:05.270Z,100397.01
2024-05-09T04:23:11.900Z,100398.63
2024-05-09T04:33:15.963Z,100394.84
2024-05-09T04:43:20.704Z,100399.73
2024-05-09T04:53:24.034Z,100399.88
2024-05-09T05:03:27.863Z,100386.59
2024-05-09T05:13:32.081Z,100380.22
2024-05-09T05:23:35.491Z,100385.89
2024-05-09T05:33:39.144Z,100380.68
2024-05-09T05:43:42.580Z,100378.41
2024-05-09T05:53:45.996Z,100373.75
2024-05-09T06:03:49.798Z,100372.41
2024-05-09T06:13:53.290Z,100374.61
2024-05-09T06:23:56.597Z,100382.34
2024-05-09T06:33:59.762Z,100380.16
2024-05-09T06:44:03.195Z,100377.64
2024-05-09T06:54:07.899Z,100367.52
2024-05-09T07:04:11.558Z,100369.58
2024-05-09T07:14:14.857Z,100367.77
2024-05-09T07:24:18.220Z,100365.70
2024-05-09T07:34:21.847Z,100356.84
2024-05-09T07:44:25.185Z,100359.63
2024-05-09T07:54:28.642Z,100360.41
2024-05-09T08:04:32.037Z,100350.94
2024-05-09T08:14:35.259Z,100346.68
2024-05-09T08:24:38.499Z,100352.50
2024-05-09T08:34:41.641Z,100348.27
2024-05-09T08:44:47.570Z,100354.22
2024-05-09T08:54:50.853Z,100352.17
2024-05-09T09:05:02.975Z,100346.50
2024-05-09T09:15:07.103Z,100354.30
2024-05-09T09:25:10.406Z,100361.45
2024-05-09T09:35:13.947Z,100361.70
2024-05-09T09:45:17.634Z,100360.17
2024-05-09T09:55:24.262Z,100354.63
2024-05-09T10:05:28.038Z,100350.30
2024-05-09T10:15:42.048Z,100345.73
2024-05-09T10:25:55.269Z,100339.73
2024-05-09T10:36:03.495Z,100337.05
2024-05-09T10:46:07.439Z,100337.77
2024-05-09T10:56:13.016Z,100339.75
2024-05-09T11:06:16.864Z,100330.82
2024-05-09T11:16:22.160Z,100316.34
2024-05-09T11:26:28.671Z,100310.25
2024-05-09T11:36:31.878Z,100304.77
2024-05-09T11:46:35.298Z,100301.98
2024-05-09T11:56:38.467Z,100293.99
2024-05-09T12:06:41.574Z,100283.10
2024-05-09T12:16:44.762Z,100289.47
2024-05-09T12:26:48.035Z,100290.92
2024-05-09T12:36:51.244Z,100290.59
2024-05-09T12:46:54.676Z,100283.05
2024-05-09T12:56:57.797Z,100268.17
2024-05-09T13:07:01.045Z,100267.63
2024-05-09T13:17:05.408Z,100257.58
2024-05-09T13:27:09.656Z,100250.20
2024-05-09T13:37:15.094Z,100241.23
2024-05-09T13:47:19.170Z,100233.64
2024-05-09T13:57:22.310Z,100227.71
2024-05-09T14:07:25.635Z,100223.45
2024-05-09T14:17:28.796Z,100214.36
2024-05-09T14:27:34.292Z,100205.95
2024-05-09T14:37:39.681Z,100200.73
2024-05-09T14:47:43.137Z,100197.25
2024-05-09T14:57:46.982Z,100182.06
2024-05-09T15:07:50.103Z,100175.82
2024-05-09T15:17:54.302Z,100165.24
2024-05-09T15:27:57.916Z,100146.30
2024-05-09T15:38:02.340Z,100129.73
2024-05-09T15:48:07.942Z,100121.55
2024-05-09T15:58:11.579Z,100115.80
2024-05-09T16:08:15.349Z,100109.73
2024-05-09T16:18:18.958Z,100104.35
2024-05-09T16:28:24.525Z,100107.09
2024-05-09T16:38:27.852Z,100107.40
2024-05-09T16:48:31.488Z,100110.00
2024-05-09T16:58:35.042Z,100103.81
2024-05-09T17:08:41.001Z,100097.90
2024-05-09T17:18:45.511Z,100096.45
2024-05-09T17:28:48.997Z,100090.42
2024-05-09T17:38:52.171Z,100089.96
2024-05-09T17:48:57.356Z,100090.02
2024-05-09T17:59:01.960Z,100090.99
2024-05-09T18:09:05.667Z,100103.34
2024-05-09T18:19:09.423Z,100107.04
2024-05-09T18:29:13.129Z,100112.61
2024-05-09T18:39:17.327Z,100122.02
2024-05-09T18:49:20.837Z,100128.14
2024-05-09T18:59:24.367Z,100138.10
2024-05-09T19:09:27.594Z,100144.54
2024-05-09T19:19:31.219Z,100142.13
2024-05-09T19:29:35.016Z,100141.84
2024-05-09T19:39:38.414Z,100145.70
2024-05-09T19:49:41.989Z,100142.27
2024-05-09T19:59:45.426Z,100147.32
2024-05-09T20:09:48.756Z,100151.60
2024-05-09T20:19:52.316Z,100158.41
2024-05-09T20:29:56.039Z,100160.32
2024-05-09T20:39:59.268Z,100159.40
2024-05-09T20:50:04.114Z,100161.09
2024-05-09T21:00:18.275Z,100160.27
2024-05-09T21:10:22.989Z,100159.27
2024-05-09T21:30:41.220Z,100153.84
2024-05-09T21:40:46.024Z,100144.77
2024-05-09T21:50:51.764Z,100147.58
2024-05-09T22:00:55.010Z,100147.39
2024-05-09T22:10:58.470Z,100150.57
2024-05-09T22:21:01.794Z,100144.06
2024-05-09T22:31:05.680Z,100143.38
2024-05-09T22:41:08.976Z,100142.39
2024-05-09T22:51:13.051Z,100140.76
2024-05-09T23:01:16.400Z,100148.90
2024-05-09T23:11:19.554Z,100146.77
2024-05-09T23:21:23.345Z,100140.42
2024-05-09T23:31:26.903Z,100138.95
2024-05-09T23:41:30.349Z,100131.67
2024-05-09T23:51:33.713Z,100122.36
